sensor_id;sensor_type;location;lat;lon;timestamp;temperature;humidity
18741;DHT22;9499;52.472;13.448;2023-08-20T00:00:57;26.80;1.00
18741;DHT22;9499;52.472;13.448;2023-08-20T00:03:24;26.70;33.40
18741;DHT22;9499;52.472;13.448;2023-08-20T00:05:51;26.60;77.20
18741;DHT22;9499;52.472;13.448;2023-08-20T00:08:18;26.60;99.90
18741;DHT22;9499;52.472;13.448;2023-08-20T00:10:47;26.60;99.90
18741;DHT22;9499;52.472;13.448;2023-08-20T00:13:14;26.60;99.90
18741;DHT22;9499;52.472;13.448;2023-08-20T00:15:40;26.50;1.00
18741;DHT22;9499;52.472;13.448;2023-08-20T00:18:08;26.50;1.00
18741;DHT22;9499;52.472;13.448;2023-08-20T00:20:35;26.50;99.90
18741;DHT22;9499;52.472;13.448;2023-08-20T00:23:02;26.40;1.00
18741;DHT22;9499;52.472;13.448;2023-08-20T00:25:30;26.40;1.00
18741;DHT22;9499;52.472;13.448;2023-08-20T00:27:58;26.30;1.00
18741;DHT22;9499;52.472;13.448;2023-08-20T00:30:24;26.30;1.00
18741;DHT22;9499;52.472;13.448;2023-08-20T00:32:51;26.30;1.00
18741;DHT22;9499;52.472;13.448;2023-08-20T00:35:18;26.30;1.00
18741;DHT22;9499;52.472;13.448;2023-08-20T00:37:45;26.30;1.00
18741;DHT22;9499;52.472;13.448;2023-08-20T00:40:12;26.20;1.00
18741;DHT22;9499;52.472;13.448;2023-08-20T00:42:38;26.20;1.00
18741;DHT22;9499;52.472;13.448;2023-08-20T00:45:07;26.10;1.00
18741;DHT22;9499;52.472;13.448;2023-08-20T00:47:34;26.10;1.00
18741;DHT22;9499;52.472;13.448;2023-08-20T00:50:02;26.10;1.00
18741;DHT22;9499;52.472;13.448;2023-08-20T00:52:31;26.10;1.00
18741;DHT22;9499;52.472;13.448;2023-08-20T00:54:58;26.00;30.30
18741;DHT22;9499;52.472;13.448;2023-08-20T00:57:26;26.00;58.30
18741;DHT22;9499;52.472;13.448;2023-08-20T00:59:55;26.00;22.70
18741;DHT22;9499;52.472;13.448;2023-08-20T01:02:24;26.00;1.00
18741;DHT22;9499;52.472;13.448;2023-08-20T01:04:51;26.00;1.00
18741;DHT22;9499;52.472;13.448;2023-08-20T01:07:24;26.10;1.00
18741;DHT22;9499;52.472;13.448;2023-08-20T01:09:59;26.10;1.00
18741;DHT22;9499;52.472;13.448;2023-08-20T01:12:31;26.00;1.00
18741;DHT22;9499;52.472;13.448;2023-08-20T01:14:59;25.90;1.00
18741;DHT22;9499;52.472;13.448;2023-08-20T01:17:26;25.90;93.40
18741;DHT22;9499;52.472;13.448;2023-08-20T01:19:53;25.80;99.90
18741;DHT22;9499;52.472;13.448;2023-08-20T01:22:40;25.70;99.90
18741;DHT22;9499;52.472;13.448;2023-08-20T01:25:24;25.70;1.00
18741;DHT22;9499;52.472;13.448;2023-08-20T01:28:01;25.70;1.00
18741;DHT22;9499;52.472;13.448;2023-08-20T01:30:31;25.70;1.00
18741;DHT22;9499;52.472;13.448;2023-08-20T01:32:59;25.70;1.00
18741;DHT22;9499;52.472;13.448;2023-08-20T01:35:26;25.60;1.00
18741;DHT22;9499;52.472;13.448;2023-08-20T01:37:52;25.60;1.00
18741;DHT22;9499;52.472;13.448;2023-08-20T01:40:19;25.60;1.00
18741;DHT22;9499;52.472;13.448;2023-08-20T01:42:46;25.50;1.00
18741;DHT22;9499;52.472;13.448;2023-08-20T01:45:12;25.50;1.00
18741;DHT22;9499;52.472;13.448;2023-08-20T01:47:41;25.50;1.00
18741;DHT22;9499;52.472;13.448;2023-08-20T01:50:09;25.50;1.00
18741;DHT22;9499;52.472;13.448;2023-08-20T01:52:36;25.50;1.00
18741;DHT22;9499;52.472;13.448;2023-08-20T01:55:04;25.50;1.00
18741;DHT22;9499;52.472;13.448;2023-08-20T01:57:31;25.50;1.00
18741;DHT22;9499;52.472;13.448;2023-08-20T01:59:58;25.50;1.00
18741;DHT22;9499;52.472;13.448;2023-08-20T02:02:25;25.40;1.00
18741;DHT22;9499;52.472;13.448;2023-08-20T02:04:52;25.30;1.00
18741;DHT22;9499;52.472;13.448;2023-08-20T02:07:19;25.30;1.00
18741;DHT22;9499;52.472;13.448;2023-08-20T02:09:46;25.30;1.00
18741;DHT22;9499;52.472;13.448;2023-08-20T02:12:12;25.30;1.00
18741;DHT22;9499;52.472;13.448;2023-08-20T02:14:39;25.20;1.00
18741;DHT22;9499;52.472;13.448;2023-08-20T02:17:06;25.20;1.00
18741;DHT22;9499;52.472;13.448;2023-08-20T02:19:33;25.10;1.00
18741;DHT22;9499;52.472;13.448;2023-08-20T02:22:01;25.10;1.00
18741;DHT22;9499;52.472;13.448;2023-08-20T02:24:28;25.10;1.00
18741;DHT22;9499;52.472;13.448;2023-08-20T02:26:54;25.10;1.00
18741;DHT22;9499;52.472;13.448;2023-08-20T02:29:21;25.10;1.00
18741;DHT22;9499;52.472;13.448;2023-08-20T02:31:48;25.00;1.00
18741;DHT22;9499;52.472;13.448;2023-08-20T02:34:15;24.90;1.00
18741;DHT22;9499;52.472;13.448;2023-08-20T02:36:42;24.90;1.00
18741;DHT22;9499;52.472;13.448;2023-08-20T02:39:10;24.90;1.00
18741;DHT22;9499;52.472;13.448;2023-08-20T02:41:37;24.90;1.00
18741;DHT22;9499;52.472;13.448;2023-08-20T02:44:04;24.80;3.40
18741;DHT22;9499;52.472;13.448;2023-08-20T02:46:31;24.80;7.20
18741;DHT22;9499;52.472;13.448;2023-08-20T02:48:57;24.80;9.60
18741;DHT22;9499;52.472;13.448;2023-08-20T02:51:24;24.70;15.70
18741;DHT22;9499;52.472;13.448;2023-08-20T02:53:50;24.70;20.00
18741;DHT22;9499;52.472;13.448;2023-08-20T02:56:18;24.60;24.00
18741;DHT22;9499;52.472;13.448;2023-08-20T02:58:45;24.60;25.90
18741;DHT22;9499;52.472;13.448;2023-08-20T03:01:19;24.60;26.00
18741;DHT22;9499;52.472;13.448;2023-08-20T03:03:46;24.60;27.50
18741;DHT22;9499;52.472;13.448;2023-08-20T03:06:14;24.50;36.90
18741;DHT22;9499;52.472;13.448;2023-08-20T03:08:40;24.50;33.10
18741;DHT22;9499;52.472;13.448;2023-08-20T03:11:07;24.50;38.80
18741;DHT22;9499;52.472;13.448;2023-08-20T03:13:35;24.40;41.60
18741;DHT22;9499;52.472;13.448;2023-08-20T03:16:02;24.40;46.50
18741;DHT22;9499;52.472;13.448;2023-08-20T03:18:29;24.30;50.40
18741;DHT22;9499;52.472;13.448;2023-08-20T03:20:56;24.30;55.60
18741;DHT22;9499;52.472;13.448;2023-08-20T03:23:23;24.30;57.80
18741;DHT22;9499;52.472;13.448;2023-08-20T03:25:50;24.20;63.10
18741;DHT22;9499;52.472;13.448;2023-08-20T03:28:17;24.20;59.80
18741;DHT22;9499;52.472;13.448;2023-08-20T03:30:45;24.10;77.90
18741;DHT22;9499;52.472;13.448;2023-08-20T03:33:12;24.10;78.90
18741;DHT22;9499;52.472;13.448;2023-08-20T03:35:39;24.10;78.50
18741;DHT22;9499;52.472;13.448;2023-08-20T03:38:05;24.10;83.40
18741;DHT22;9499;52.472;13.448;2023-08-20T03:40:32;24.00;91.60
18741;DHT22;9499;52.472;13.448;2023-08-20T03:42:58;23.90;94.20
18741;DHT22;9499;52.472;13.448;2023-08-20T03:45:26;23.90;95.80
18741;DHT22;9499;52.472;13.448;2023-08-20T03:47:53;23.90;93.50
18741;DHT22;9499;52.472;13.448;2023-08-20T03:50:20;23.90;95.80
18741;DHT22;9499;52.472;13.448;2023-08-20T03:52:46;23.90;96.90
18741;DHT22;9499;52.472;13.448;2023-08-20T03:55:13;23.90;96.40
18741;DHT22;9499;52.472;13.448;2023-08-20T03:57:39;23.90;92.70
18741;DHT22;9499;52.472;13.448;2023-08-20T04:00:06;23.90;97.50
18741;DHT22;9499;52.472;13.448;2023-08-20T04:02:35;23.80;99.90
18741;DHT22;9499;52.472;13.448;2023-08-20T04:05:03;23.80;99.90
18741;DHT22;9499;52.472;13.448;2023-08-20T04:07:29;23.80;99.90
18741;DHT22;9499;52.472;13.448;2023-08-20T04:09:56;23.70;99.90
18741;DHT22;9499;52.472;13.448;2023-08-20T04:12:22;23.70;99.90
18741;DHT22;9499;52.472;13.448;2023-08-20T04:14:49;23.70;99.90
18741;DHT22;9499;52.472;13.448;2023-08-20T04:17:15;23.70;99.90
18741;DHT22;9499;52.472;13.448;2023-08-20T04:19:42;23.60;99.90
18741;DHT22;9499;52.472;13.448;2023-08-20T04:22:10;23.60;99.90
18741;DHT22;9499;52.472;13.448;2023-08-20T04:24:36;23.50;99.90
18741;DHT22;9499;52.472;13.448;2023-08-20T04:27:03;23.50;99.90
18741;DHT22;9499;52.472;13.448;2023-08-20T04:29:29;23.40;99.90
18741;DHT22;9499;52.472;13.448;2023-08-20T04:31:56;23.50;99.90
18741;DHT22;9499;52.472;13.448;2023-08-20T04:34:22;23.50;99.90
18741;DHT22;9499;52.472;13.448;2023-08-20T04:36:49;23.60;99.90
18741;DHT22;9499;52.472;13.448;2023-08-20T04:39:18;23.60;99.90
18741;DHT22;9499;52.472;13.448;2023-08-20T04:41:44;23.60;99.90
18741;DHT22;9499;52.472;13.448;2023-08-20T04:44:11;23.50;99.90
18741;DHT22;9499;52.472;13.448;2023-08-20T04:46:37;23.40;99.90
18741;DHT22;9499;52.472;13.448;2023-08-20T04:49:04;23.40;99.90
18741;DHT22;9499;52.472;13.448;2023-08-20T04:51:31;23.40;99.90
18741;DHT22;9499;52.472;13.448;2023-08-20T04:53:57;23.50;99.90
18741;DHT22;9499;52.472;13.448;2023-08-20T04:56:25;23.50;99.90
18741;DHT22;9499;52.472;13.448;2023-08-20T04:58:51;23.60;99.90
18741;DHT22;9499;52.472;13.448;2023-08-20T05:01:18;23.50;99.90
18741;DHT22;9499;52.472;13.448;2023-08-20T05:03:44;23.50;99.90
18741;DHT22;9499;52.472;13.448;2023-08-20T05:06:11;23.40;99.90
18741;DHT22;9499;52.472;13.448;2023-08-20T05:08:37;23.40;99.90
18741;DHT22;9499;52.472;13.448;2023-08-20T05:11:04;23.40;99.90
18741;DHT22;9499;52.472;13.448;2023-08-20T05:13:32;23.40;99.90
18741;DHT22;9499;52.472;13.448;2023-08-20T05:15:58;23.40;99.90
18741;DHT22;9499;52.472;13.448;2023-08-20T05:18:25;23.30;99.90
18741;DHT22;9499;52.472;13.448;2023-08-20T05:20:52;23.30;99.90
18741;DHT22;9499;52.472;13.448;2023-08-20T05:23:18;23.30;99.90
18741;DHT22;9499;52.472;13.448;2023-08-20T05:25:45;23.30;99.90
18741;DHT22;9499;52.472;13.448;2023-08-20T05:28:11;23.30;99.90
18741;DHT22;9499;52.472;13.448;2023-08-20T05:30:39;23.30;99.90
18741;DHT22;9499;52.472;13.448;2023-08-20T05:33:05;23.30;99.90
18741;DHT22;9499;52.472;13.448;2023-08-20T05:35:32;23.30;99.90
18741;DHT22;9499;52.472;13.448;2023-08-20T05:37:58;23.30;99.90
18741;DHT22;9499;52.472;13.448;2023-08-20T05:40:25;23.40;99.90
18741;DHT22;9499;52.472;13.448;2023-08-20T05:42:51;23.40;99.90
18741;DHT22;9499;52.472;13.448;2023-08-20T05:45:18;23.40;99.90
18741;DHT22;9499;52.472;13.448;2023-08-20T05:47:45;23.50;99.90
18741;DHT22;9499;52.472;13.448;2023-08-20T05:50:12;23.60;99.90
18741;DHT22;9499;52.472;13.448;2023-08-20T05:52:38;23.60;99.90
18741;DHT22;9499;52.472;13.448;2023-08-20T05:55:05;23.50;99.90
18741;DHT22;9499;52.472;13.448;2023-08-20T05:57:32;23.40;99.90
18741;DHT22;9499;52.472;13.448;2023-08-20T05:59:58;23.40;99.90
18741;DHT22;9499;52.472;13.448;2023-08-20T06:02:25;23.40;99.90
18741;DHT22;9499;52.472;13.448;2023-08-20T06:04:52;23.50;99.90
18741;DHT22;9499;52.472;13.448;2023-08-20T06:07:19;23.50;99.90
18741;DHT22;9499;52.472;13.448;2023-08-20T06:09:45;23.50;99.90
18741;DHT22;9499;52.472;13.448;2023-08-20T06:12:12;23.50;99.90
18741;DHT22;9499;52.472;13.448;2023-08-20T06:14:38;23.40;99.90
18741;DHT22;9499;52.472;13.448;2023-08-20T06:17:05;23.50;99.90
18741;DHT22;9499;52.472;13.448;2023-08-20T06:19:31;23.50;99.90
18741;DHT22;9499;52.472;13.448;2023-08-20T06:21:59;23.50;99.90
18741;DHT22;9499;52.472;13.448;2023-08-20T06:24:26;23.50;99.90
18741;DHT22;9499;52.472;13.448;2023-08-20T06:26:52;23.60;99.90
18741;DHT22;9499;52.472;13.448;2023-08-20T06:29:19;23.60;99.90
18741;DHT22;9499;52.472;13.448;2023-08-20T06:31:47;23.60;99.90
18741;DHT22;9499;52.472;13.448;2023-08-20T06:34:13;23.50;99.90
18741;DHT22;9499;52.472;13.448;2023-08-20T06:36:40;23.50;99.90
18741;DHT22;9499;52.472;13.448;2023-08-20T06:39:07;23.60;99.90
18741;DHT22;9499;52.472;13.448;2023-08-20T06:41:34;23.50;99.90
18741;DHT22;9499;52.472;13.448;2023-08-20T06:44:01;23.60;99.90
18741;DHT22;9499;52.472;13.448;2023-08-20T06:46:28;23.60;99.90
18741;DHT22;9499;52.472;13.448;2023-08-20T06:48:54;23.60;99.90
18741;DHT22;9499;52.472;13.448;2023-08-20T06:51:21;23.40;99.90
18741;DHT22;9499;52.472;13.448;2023-08-20T06:53:48;23.40;99.90
18741;DHT22;9499;52.472;13.448;2023-08-20T06:56:16;23.40;99.90
18741;DHT22;9499;52.472;13.448;2023-08-20T06:58:42;23.40;99.90
18741;DHT22;9499;52.472;13.448;2023-08-20T07:01:09;23.50;99.90
18741;DHT22;9499;52.472;13.448;2023-08-20T07:03:39;23.40;99.90
18741;DHT22;9499;52.472;13.448;2023-08-20T07:06:06;23.50;99.90
18741;DHT22;9499;52.472;13.448;2023-08-20T07:08:34;23.50;99.90
18741;DHT22;9499;52.472;13.448;2023-08-20T07:11:01;23.50;99.90
18741;DHT22;9499;52.472;13.448;2023-08-20T07:13:29;23.40;99.90
18741;DHT22;9499;52.472;13.448;2023-08-20T07:15:55;23.40;99.90
18741;DHT22;9499;52.472;13.448;2023-08-20T07:18:22;23.40;99.90
18741;DHT22;9499;52.472;13.448;2023-08-20T07:20:49;23.40;99.90
18741;DHT22;9499;52.472;13.448;2023-08-20T07:23:16;23.50;99.90
18741;DHT22;9499;52.472;13.448;2023-08-20T07:25:42;23.60;99.90
18741;DHT22;9499;52.472;13.448;2023-08-20T07:28:10;23.40;99.90
18741;DHT22;9499;52.472;13.448;2023-08-20T07:30:38;23.50;99.90
18741;DHT22;9499;52.472;13.448;2023-08-20T07:33:06;23.60;99.90
18741;DHT22;9499;52.472;13.448;2023-08-20T07:35:32;23.60;99.90
18741;DHT22;9499;52.472;13.448;2023-08-20T07:37:59;23.50;99.90
18741;DHT22;9499;52.472;13.448;2023-08-20T07:40:25;23.60;99.90
18741;DHT22;9499;52.472;13.448;2023-08-20T07:42:52;23.60;99.90
18741;DHT22;9499;52.472;13.448;2023-08-20T07:45:18;23.60;97.00
18741;DHT22;9499;52.472;13.448;2023-08-20T07:47:46;23.60;96.20
18741;DHT22;9499;52.472;13.448;2023-08-20T07:50:13;23.60;97.90
18741;DHT22;9499;52.472;13.448;2023-08-20T07:52:39;23.70;98.50
18741;DHT22;9499;52.472;13.448;2023-08-20T07:55:06;23.80;90.40
18741;DHT22;9499;52.472;13.448;2023-08-20T07:57:33;23.80;91.90
18741;DHT22;9499;52.472;13.448;2023-08-20T07:59:59;23.80;82.40
18741;DHT22;9499;52.472;13.448;2023-08-20T08:02:26;23.90;50.00
18741;DHT22;9499;52.472;13.448;2023-08-20T08:04:54;23.90;51.70
18741;DHT22;9499;52.472;13.448;2023-08-20T08:07:21;24.00;43.10
18741;DHT22;9499;52.472;13.448;2023-08-20T08:09:47;24.00;43.00
18741;DHT22;9499;52.472;13.448;2023-08-20T08:12:14;23.90;43.00
18741;DHT22;9499;52.472;13.448;2023-08-20T08:14:40;23.70;67.90
18741;DHT22;9499;52.472;13.448;2023-08-20T08:17:06;23.70;66.90
18741;DHT22;9499;52.472;13.448;2023-08-20T08:19:33;23.70;78.70
18741;DHT22;9499;52.472;13.448;2023-08-20T08:22:01;23.70;60.30
18741;DHT22;9499;52.472;13.448;2023-08-20T08:24:28;23.80;58.40
18741;DHT22;9499;52.472;13.448;2023-08-20T08:26:55;23.90;42.40
18741;DHT22;9499;52.472;13.448;2023-08-20T08:29:21;23.90;25.60
18741;DHT22;9499;52.472;13.448;2023-08-20T08:31:48;24.10;14.90
18741;DHT22;9499;52.472;13.448;2023-08-20T08:34:14;24.20;12.00
18741;DHT22;9499;52.472;13.448;2023-08-20T08:36:41;24.30;1.00
18741;DHT22;9499;52.472;13.448;2023-08-20T08:39:08;24.40;1.00
18741;DHT22;9499;52.472;13.448;2023-08-20T08:41:35;24.40;1.00
18741;DHT22;9499;52.472;13.448;2023-08-20T08:44:05;24.30;1.00
18741;DHT22;9499;52.472;13.448;2023-08-20T08:46:33;24.40;1.00
18741;DHT22;9499;52.472;13.448;2023-08-20T08:49:01;24.60;1.00
18741;DHT22;9499;52.472;13.448;2023-08-20T08:51:28;24.70;1.00
18741;DHT22;9499;52.472;13.448;2023-08-20T08:53:56;24.70;1.00
18741;DHT22;9499;52.472;13.448;2023-08-20T08:56:24;24.70;1.00
18741;DHT22;9499;52.472;13.448;2023-08-20T08:58:51;24.70;1.00
18741;DHT22;9499;52.472;13.448;2023-08-20T09:01:17;24.70;1.00
18741;DHT22;9499;52.472;13.448;2023-08-20T09:03:44;24.70;1.00
18741;DHT22;9499;52.472;13.448;2023-08-20T09:06:10;24.70;1.00
18741;DHT22;9499;52.472;13.448;2023-08-20T09:08:37;24.70;1.00
18741;DHT22;9499;52.472;13.448;2023-08-20T09:11:03;24.70;1.00
18741;DHT22;9499;52.472;13.448;2023-08-20T09:13:36;24.90;1.00
18741;DHT22;9499;52.472;13.448;2023-08-20T09:16:06;25.10;1.00
18741;DHT22;9499;52.472;13.448;2023-08-20T09:18:33;25.20;1.00
18741;DHT22;9499;52.472;13.448;2023-08-20T09:21:06;25.50;1.00
18741;DHT22;9499;52.472;13.448;2023-08-20T09:23:33;25.60;1.00
18741;DHT22;9499;52.472;13.448;2023-08-20T09:26:02;25.60;1.00
18741;DHT22;9499;52.472;13.448;2023-08-20T09:28:29;25.60;1.00
18741;DHT22;9499;52.472;13.448;2023-08-20T09:31:07;25.70;1.00
18741;DHT22;9499;52.472;13.448;2023-08-20T09:33:34;25.70;99.90
18741;DHT22;9499;52.472;13.448;2023-08-20T09:36:02;25.70;99.90
18741;DHT22;9499;52.472;13.448;2023-08-20T09:38:29;25.80;99.90
18741;DHT22;9499;52.472;13.448;2023-08-20T09:40:55;25.80;99.90
18741;DHT22;9499;52.472;13.448;2023-08-20T09:43:24;25.90;99.90
18741;DHT22;9499;52.472;13.448;2023-08-20T09:45:55;25.90;99.90
18741;DHT22;9499;52.472;13.448;2023-08-20T09:48:24;25.90;99.90
18741;DHT22;9499;52.472;13.448;2023-08-20T09:50:57;26.00;99.90
18741;DHT22;9499;52.472;13.448;2023-08-20T09:53:27;26.10;1.00
18741;DHT22;9499;52.472;13.448;2023-08-20T09:56:03;26.00;99.90
18741;DHT22;9499;52.472;13.448;2023-08-20T09:58:32;26.10;1.00
18741;DHT22;9499;52.472;13.448;2023-08-20T10:00:59;26.20;1.00
18741;DHT22;9499;52.472;13.448;2023-08-20T10:03:27;26.20;1.00
18741;DHT22;9499;52.472;13.448;2023-08-20T10:05:54;26.40;99.90
18741;DHT22;9499;52.472;13.448;2023-08-20T10:08:23;26.60;1.00
18741;DHT22;9499;52.472;13.448;2023-08-20T10:10:49;26.90;99.90
18741;DHT22;9499;52.472;13.448;2023-08-20T10:13:17;27.20;1.00
18741;DHT22;9499;52.472;13.448;2023-08-20T10:15:44;27.50;55.60
18741;DHT22;9499;52.472;13.448;2023-08-20T10:18:11;27.90;1.00
18741;DHT22;9499;52.472;13.448;2023-08-20T10:20:40;28.10;99.90
18741;DHT22;9499;52.472;13.448;2023-08-20T10:23:07;28.10;1.00
18741;DHT22;9499;52.472;13.448;2023-08-20T10:25:41;28.10;1.00
18741;DHT22;9499;52.472;13.448;2023-08-20T10:28:13;28.30;99.90
18741;DHT22;9499;52.472;13.448;2023-08-20T10:31:05;28.60;99.90
18741;DHT22;9499;52.472;13.448;2023-08-20T10:33:33;28.90;1.00
18741;DHT22;9499;52.472;13.448;2023-08-20T10:36:07;29.20;99.90
18741;DHT22;9499;52.472;13.448;2023-08-20T10:38:36;29.30;99.90
18741;DHT22;9499;52.472;13.448;2023-08-20T10:41:06;29.20;50.30
18741;DHT22;9499;52.472;13.448;2023-08-20T10:43:33;29.40;15.30
18741;DHT22;9499;52.472;13.448;2023-08-20T10:46:08;29.50;1.00
18741;DHT22;9499;52.472;13.448;2023-08-20T10:48:36;29.40;1.00
18741;DHT22;9499;52.472;13.448;2023-08-20T10:51:12;29.30;1.00
18741;DHT22;9499;52.472;13.448;2023-08-20T10:53:40;29.30;1.00
18741;DHT22;9499;52.472;13.448;2023-08-20T10:56:11;29.50;1.00
18741;DHT22;9499;52.472;13.448;2023-08-20T10:58:40;29.60;1.00
18741;DHT22;9499;52.472;13.448;2023-08-20T11:01:14;29.80;99.90
18741;DHT22;9499;52.472;13.448;2023-08-20T11:03:42;30.00;99.90
18741;DHT22;9499;52.472;13.448;2023-08-20T11:06:10;30.10;99.90
18741;DHT22;9499;52.472;13.448;2023-08-20T11:08:37;29.90;99.90
18741;DHT22;9499;52.472;13.448;2023-08-20T11:11:05;29.80;99.90
18741;DHT22;9499;52.472;13.448;2023-08-20T11:13:32;29.60;99.90
18741;DHT22;9499;52.472;13.448;2023-08-20T11:15:59;29.60;99.90
18741;DHT22;9499;52.472;13.448;2023-08-20T11:18:25;29.50;99.90
18741;DHT22;9499;52.472;13.448;2023-08-20T11:20:53;29.60;99.90
18741;DHT22;9499;52.472;13.448;2023-08-20T11:23:21;29.90;99.90
18741;DHT22;9499;52.472;13.448;2023-08-20T11:25:48;29.90;99.90
18741;DHT22;9499;52.472;13.448;2023-08-20T11:28:15;30.00;99.90
18741;DHT22;9499;52.472;13.448;2023-08-20T11:30:41;30.20;99.90
18741;DHT22;9499;52.472;13.448;2023-08-20T11:33:08;30.00;90.30
18741;DHT22;9499;52.472;13.448;2023-08-20T11:35:35;30.00;47.30
18741;DHT22;9499;52.472;13.448;2023-08-20T11:38:03;30.10;35.90
18741;DHT22;9499;52.472;13.448;2023-08-20T11:40:30;30.10;1.00
18741;DHT22;9499;52.472;13.448;2023-08-20T11:42:57;30.30;1.00
18741;DHT22;9499;52.472;13.448;2023-08-20T11:45:24;30.30;1.00
18741;DHT22;9499;52.472;13.448;2023-08-20T11:47:56;30.40;1.00
18741;DHT22;9499;52.472;13.448;2023-08-20T11:50:23;30.30;1.00
18741;DHT22;9499;52.472;13.448;2023-08-20T11:52:52;30.20;1.00
18741;DHT22;9499;52.472;13.448;2023-08-20T11:55:22;29.90;1.00
18741;DHT22;9499;52.472;13.448;2023-08-20T11:57:51;30.20;1.00
18741;DHT22;9499;52.472;13.448;2023-08-20T12:00:24;30.40;1.00
18741;DHT22;9499;52.472;13.448;2023-08-20T12:02:52;30.30;1.00
18741;DHT22;9499;52.472;13.448;2023-08-20T12:05:19;30.30;1.00
18741;DHT22;9499;52.472;13.448;2023-08-20T12:07:54;30.40;1.00
18741;DHT22;9499;52.472;13.448;2023-08-20T12:10:22;30.50;1.00
18741;DHT22;9499;52.472;13.448;2023-08-20T12:12:48;30.40;1.00
18741;DHT22;9499;52.472;13.448;2023-08-20T12:15:16;30.30;1.00
18741;DHT22;9499;52.472;13.448;2023-08-20T12:17:43;30.50;1.00
18741;DHT22;9499;52.472;13.448;2023-08-20T12:20:10;30.70;1.00
18741;DHT22;9499;52.472;13.448;2023-08-20T12:22:37;30.80;1.00
18741;DHT22;9499;52.472;13.448;2023-08-20T12:25:05;31.00;1.00
18741;DHT22;9499;52.472;13.448;2023-08-20T12:27:31;30.90;1.00
18741;DHT22;9499;52.472;13.448;2023-08-20T12:29:58;31.00;1.00
18741;DHT22;9499;52.472;13.448;2023-08-20T12:32:26;31.20;1.00
18741;DHT22;9499;52.472;13.448;2023-08-20T12:34:52;31.30;1.00
18741;DHT22;9499;52.472;13.448;2023-08-20T12:37:19;31.50;1.00
18741;DHT22;9499;52.472;13.448;2023-08-20T12:39:45;31.60;1.00
18741;DHT22;9499;52.472;13.448;2023-08-20T12:42:12;31.20;1.00
18741;DHT22;9499;52.472;13.448;2023-08-20T12:44:38;31.50;1.00
18741;DHT22;9499;52.472;13.448;2023-08-20T12:47:05;31.40;1.00
18741;DHT22;9499;52.472;13.448;2023-08-20T12:49:33;31.50;1.00
18741;DHT22;9499;52.472;13.448;2023-08-20T12:51:59;31.70;1.00
18741;DHT22;9499;52.472;13.448;2023-08-20T12:54:26;31.80;1.00
18741;DHT22;9499;52.472;13.448;2023-08-20T12:56:52;31.90;1.00
18741;DHT22;9499;52.472;13.448;2023-08-20T12:59:20;32.10;1.00
18741;DHT22;9499;52.472;13.448;2023-08-20T13:01:46;32.30;1.00
18741;DHT22;9499;52.472;13.448;2023-08-20T13:04:13;32.00;1.00
18741;DHT22;9499;52.472;13.448;2023-08-20T13:06:42;31.50;1.00
18741;DHT22;9499;52.472;13.448;2023-08-20T13:09:09;31.30;1.00
18741;DHT22;9499;52.472;13.448;2023-08-20T13:11:36;31.40;1.00
18741;DHT22;9499;52.472;13.448;2023-08-20T13:14:05;31.30;99.90
18741;DHT22;9499;52.472;13.448;2023-08-20T13:16:32;31.10;99.90
18741;DHT22;9499;52.472;13.448;2023-08-20T13:18:59;31.20;99.90
18741;DHT22;9499;52.472;13.448;2023-08-20T13:21:26;31.50;99.90
18741;DHT22;9499;52.472;13.448;2023-08-20T13:23:54;31.50;99.90
18741;DHT22;9499;52.472;13.448;2023-08-20T13:26:20;31.80;99.90
18741;DHT22;9499;52.472;13.448;2023-08-20T13:28:47;31.90;99.90
18741;DHT22;9499;52.472;13.448;2023-08-20T13:31:14;32.10;99.90
18741;DHT22;9499;52.472;13.448;2023-08-20T13:33:40;32.30;99.90
18741;DHT22;9499;52.472;13.448;2023-08-20T13:36:07;32.30;99.90
18741;DHT22;9499;52.472;13.448;2023-08-20T13:38:33;32.30;99.90
18741;DHT22;9499;52.472;13.448;2023-08-20T13:41:01;32.00;99.90
18741;DHT22;9499;52.472;13.448;2023-08-20T13:43:28;31.50;99.90
18741;DHT22;9499;52.472;13.448;2023-08-20T13:45:54;31.20;99.90
18741;DHT22;9499;52.472;13.448;2023-08-20T13:48:21;31.00;99.90
18741;DHT22;9499;52.472;13.448;2023-08-20T13:50:47;30.90;99.90
18741;DHT22;9499;52.472;13.448;2023-08-20T13:53:14;30.80;99.90
18741;DHT22;9499;52.472;13.448;2023-08-20T13:55:40;30.90;99.90
18741;DHT22;9499;52.472;13.448;2023-08-20T13:58:09;31.00;99.90
18741;DHT22;9499;52.472;13.448;2023-08-20T14:00:35;30.90;99.90
18741;DHT22;9499;52.472;13.448;2023-08-20T14:03:02;30.70;99.90
18741;DHT22;9499;52.472;13.448;2023-08-20T14:05:28;30.50;99.90
18741;DHT22;9499;52.472;13.448;2023-08-20T14:07:56;30.40;99.90
18741;DHT22;9499;52.472;13.448;2023-08-20T14:10:23;30.40;99.90
18741;DHT22;9499;52.472;13.448;2023-08-20T14:12:49;30.30;99.90
18741;DHT22;9499;52.472;13.448;2023-08-20T14:15:17;30.40;99.90
18741;DHT22;9499;52.472;13.448;2023-08-20T14:17:44;30.50;99.90
18741;DHT22;9499;52.472;13.448;2023-08-20T14:20:11;30.40;99.90
18741;DHT22;9499;52.472;13.448;2023-08-20T14:22:39;30.30;99.90
18741;DHT22;9499;52.472;13.448;2023-08-20T14:25:05;30.40;99.90
18741;DHT22;9499;52.472;13.448;2023-08-20T14:27:32;30.60;99.90
18741;DHT22;9499;52.472;13.448;2023-08-20T14:29:58;30.70;99.90
18741;DHT22;9499;52.472;13.448;2023-08-20T14:32:26;30.30;99.90
18741;DHT22;9499;52.472;13.448;2023-08-20T14:34:53;30.30;99.90
18741;DHT22;9499;52.472;13.448;2023-08-20T14:37:19;30.40;99.90
18741;DHT22;9499;52.472;13.448;2023-08-20T14:39:46;30.40;99.90
18741;DHT22;9499;52.472;13.448;2023-08-20T14:42:12;30.30;99.90
18741;DHT22;9499;52.472;13.448;2023-08-20T14:44:38;30.10;99.90
18741;DHT22;9499;52.472;13.448;2023-08-20T14:47:05;30.10;99.90
18741;DHT22;9499;52.472;13.448;2023-08-20T14:49:33;30.00;99.90
18741;DHT22;9499;52.472;13.448;2023-08-20T14:51:59;30.10;99.90
18741;DHT22;9499;52.472;13.448;2023-08-20T14:54:26;30.20;99.90
18741;DHT22;9499;52.472;13.448;2023-08-20T14:56:52;29.90;99.90
18741;DHT22;9499;52.472;13.448;2023-08-20T14:59:19;29.70;99.90
18741;DHT22;9499;52.472;13.448;2023-08-20T15:01:46;29.70;99.90
18741;DHT22;9499;52.472;13.448;2023-08-20T15:04:12;29.60;99.90
18741;DHT22;9499;52.472;13.448;2023-08-20T15:06:40;29.60;99.90
18741;DHT22;9499;52.472;13.448;2023-08-20T15:09:06;29.70;99.90
18741;DHT22;9499;52.472;13.448;2023-08-20T15:11:40;29.70;99.90
18741;DHT22;9499;52.472;13.448;2023-08-20T15:14:06;29.80;99.90
18741;DHT22;9499;52.472;13.448;2023-08-20T15:16:33;29.80;99.90
18741;DHT22;9499;52.472;13.448;2023-08-20T15:18:59;29.50;99.90
18741;DHT22;9499;52.472;13.448;2023-08-20T15:21:26;29.50;99.90
18741;DHT22;9499;52.472;13.448;2023-08-20T15:23:54;29.50;99.90
18741;DHT22;9499;52.472;13.448;2023-08-20T15:26:20;29.60;99.90
18741;DHT22;9499;52.472;13.448;2023-08-20T15:28:47;29.70;99.90
18741;DHT22;9499;52.472;13.448;2023-08-20T15:31:14;29.70;99.90
18741;DHT22;9499;52.472;13.448;2023-08-20T15:33:41;30.10;99.90
18741;DHT22;9499;52.472;13.448;2023-08-20T15:36:08;30.30;99.90